createdAt,value
2022-08-19T00:01:45.945Z,21.84
2022-08-19T00:04:23.531Z,21.84
2022-08-19T00:06:51.339Z,21.85
2022-08-19T00:09:22.270Z,21.86
2022-08-19T00:11:50.143Z,21.88
2022-08-19T00:14:19.815Z,21.87
2022-08-19T00:16:49.048Z,21.88
2022-08-19T00:19:17.740Z,21.86
2022-08-19T00:21:45.674Z,21.87
2022-08-19T00:24:15.591Z,21.87
2022-08-19T00:26:46.342Z,21.83
2022-08-19T00:29:16.674Z,21.84
2022-08-19T00:31:44.826Z,21.80
2022-08-19T00:34:13.591Z,21.79
2022-08-19T00:36:42.301Z,21.76
2022-08-19T00:39:11.476Z,21.74
2022-08-19T00:41:40.237Z,21.73
2022-08-19T00:44:12.239Z,21.72
2022-08-19T00:46:43.077Z,21.67
2022-08-19T00:49:16.429Z,21.67
2022-08-19T00:51:46.794Z,21.68
2022-08-19T00:54:15.538Z,21.70
2022-08-19T00:56:44.401Z,21.68
2022-08-19T00:59:15.546Z,21.66
2022-08-19T01:02:03.467Z,21.67
2022-08-19T01:04:31.256Z,21.68
2022-08-19T01:07:00.579Z,21.67
2022-08-19T01:09:28.368Z,21.69
2022-08-19T01:11:57.773Z,21.69
2022-08-19T01:14:27.349Z,21.70
2022-08-19T01:16:57.889Z,21.70
2022-08-19T01:19:30.674Z,21.71
2022-08-19T01:22:16.831Z,21.71
2022-08-19T01:24:49.734Z,21.72
2022-08-19T01:27:18.167Z,21.72
2022-08-19T01:29:46.848Z,21.71
2022-08-19T01:32:33.571Z,21.68
2022-08-19T01:35:02.990Z,21.67
2022-08-19T01:37:31.601Z,21.66
2022-08-19T01:40:00.926Z,21.66
2022-08-19T01:42:30.458Z,21.64
2022-08-19T01:44:59.170Z,21.67
2022-08-19T01:47:26.914Z,21.66
2022-08-19T01:49:54.916Z,21.64
2022-08-19T01:52:22.672Z,21.63
2022-08-19T01:54:50.447Z,21.62
2022-08-19T01:57:19.549Z,21.62
2022-08-19T01:59:47.746Z,21.61
2022-08-19T02:02:15.689Z,21.61
2022-08-19T02:04:43.471Z,21.61
2022-08-19T02:07:11.308Z,21.60
2022-08-19T02:09:39.193Z,21.60
2022-08-19T02:12:09.591Z,21.60
2022-08-19T02:14:39.150Z,21.60
2022-08-19T02:17:07.004Z,21.58
2022-08-19T02:19:34.940Z,21.55
2022-08-19T02:22:02.855Z,21.53
2022-08-19T02:24:30.822Z,21.50
2022-08-19T02:26:59.704Z,21.52
2022-08-19T02:29:27.556Z,21.50
2022-08-19T02:31:56.998Z,21.51
2022-08-19T02:34:25.865Z,21.51
2022-08-19T02:36:53.777Z,21.47
2022-08-19T02:39:20.581Z,21.46
2022-08-19T02:41:48.282Z,21.47
2022-08-19T02:44:26.656Z,21.50
2022-08-19T02:47:00.645Z,21.47
2022-08-19T02:49:28.673Z,21.47
2022-08-19T02:51:56.441Z,21.48
2022-08-19T02:54:24.230Z,21.46
2022-08-19T02:56:52.400Z,21.45
2022-08-19T02:59:22.873Z,21.43
2022-08-19T03:01:51.423Z,21.43
2022-08-19T03:04:21.279Z,21.44
2022-08-19T03:06:49.683Z,21.46
2022-08-19T03:09:18.428Z,21.42
2022-08-19T03:11:46.368Z,21.42
2022-08-19T03:14:16.449Z,21.40
2022-08-19T03:16:47.102Z,21.42
2022-08-19T03:19:17.339Z,21.41
2022-08-19T03:21:47.260Z,21.38
2022-08-19T03:24:17.033Z,21.39
2022-08-19T03:26:47.797Z,21.36
2022-08-19T03:29:16.162Z,21.35
2022-08-19T03:31:58.439Z,21.35
2022-08-19T03:34:28.678Z,21.36
2022-08-19T03:36:59.713Z,21.33
2022-08-19T03:39:28.083Z,21.33
2022-08-19T03:42:32.569Z,21.32
2022-08-19T03:44:46.672Z,21.32
2022-08-19T03:47:17.781Z,21.27
2022-08-19T03:49:45.594Z,21.30
2022-08-19T03:52:15.219Z,21.32
2022-08-19T03:54:43.216Z,21.32
2022-08-19T03:57:12.121Z,21.33
2022-08-19T03:59:40.419Z,21.32
2022-08-19T04:02:11.532Z,21.31
2022-08-19T04:04:40.792Z,21.29
2022-08-19T04:07:09.351Z,21.31
2022-08-19T04:09:38.848Z,21.31
2022-08-19T04:12:07.701Z,21.32
2022-08-19T04:14:36.445Z,21.34
2022-08-19T04:17:06.621Z,21.34
2022-08-19T04:19:35.625Z,21.35
2022-08-19T04:22:04.887Z,21.34
2022-08-19T04:24:33.030Z,21.33
2022-08-19T04:27:03.632Z,21.34
2022-08-19T04:29:31.823Z,21.33
2022-08-19T04:32:08.734Z,21.32
2022-08-19T04:35:02.482Z,21.32
2022-08-19T04:37:25.705Z,21.34
2022-08-19T04:40:11.050Z,21.31
2022-08-19T04:42:43.051Z,21.32
2022-08-19T04:45:13.267Z,21.33
2022-08-19T04:47:47.999Z,21.32
2022-08-19T04:50:26.103Z,21.27
2022-08-19T04:52:54.532Z,21.26
2022-08-19T04:55:22.537Z,21.26
2022-08-19T04:57:51.687Z,21.26
2022-08-19T05:00:19.675Z,21.27
2022-08-19T05:02:47.552Z,21.26
2022-08-19T05:05:15.359Z,21.27
2022-08-19T05:07:43.159Z,21.26
2022-08-19T05:10:12.543Z,21.27
2022-08-19T05:12:40.533Z,21.29
2022-08-19T05:15:10.696Z,21.32
2022-08-19T05:17:39.281Z,21.35
2022-08-19T05:20:25.340Z,21.35
2022-08-19T05:22:53.364Z,21.36
2022-08-19T05:25:22.861Z,21.37
2022-08-19T05:27:50.758Z,21.36
2022-08-19T05:30:20.404Z,21.40
2022-08-19T05:33:09.091Z,21.43
2022-08-19T05:35:38.185Z,21.47
2022-08-19T05:38:05.909Z,21.48
2022-08-19T05:40:36.986Z,21.51
2022-08-19T05:43:05.916Z,21.51
2022-08-19T05:45:39.796Z,21.54
2022-08-19T05:48:07.733Z,21.59
2022-08-19T05:50:37.267Z,21.63
2022-08-19T05:53:05.199Z,21.65
2022-08-19T05:55:33.091Z,21.67
2022-08-19T05:58:02.720Z,21.71
2022-08-19T06:00:31.629Z,21.77
2022-08-19T06:03:11.860Z,21.80
2022-08-19T06:05:46.254Z,21.83
2022-08-19T06:08:33.762Z,21.83
2022-08-19T06:11:16.157Z,21.86
2022-08-19T06:13:44.327Z,21.91
2022-08-19T06:16:12.098Z,21.95
2022-08-19T06:18:41.205Z,21.97
2022-08-19T06:21:09.009Z,22.01
2022-08-19T06:23:36.772Z,22.06
2022-08-19T06:26:05.236Z,22.08
2022-08-19T06:28:33.884Z,22.12
2022-08-19T06:31:07.448Z,22.19
2022-08-19T06:33:35.387Z,22.25
2022-08-19T06:36:05.316Z,22.33
2022-08-19T06:38:34.436Z,22.39
2022-08-19T06:41:07.696Z,22.46
2022-08-19T06:43:37.152Z,22.52
2022-08-19T06:46:14.704Z,22.55
2022-08-19T06:48:45.423Z,22.56
2022-08-19T06:51:19.775Z,22.60
2022-08-19T06:53:48.243Z,22.65
2022-08-19T06:56:18.061Z,22.70
2022-08-19T06:58:47.527Z,22.75
2022-08-19T07:01:15.445Z,22.81
2022-08-19T07:03:43.226Z,22.85
2022-08-19T07:06:32.597Z,22.90
2022-08-19T07:09:03.027Z,22.94
2022-08-19T07:11:31.950Z,23.00
2022-08-19T07:14:02.109Z,23.09
2022-08-19T07:16:31.401Z,23.11
2022-08-19T07:19:00.289Z,23.15
2022-08-19T07:21:40.425Z,23.21
2022-08-19T07:24:09.794Z,23.25
2022-08-19T07:26:42.209Z,23.31
2022-08-19T07:29:10.736Z,23.36
2022-08-19T07:31:38.696Z,23.42
2022-08-19T07:34:08.650Z,23.52
2022-08-19T07:36:38.471Z,23.62
2022-08-19T07:39:10.459Z,23.75
2022-08-19T07:41:38.334Z,23.90
2022-08-19T07:44:08.394Z,24.01
2022-08-19T07:46:38.299Z,24.14
2022-08-19T07:49:06.848Z,24.27
2022-08-19T07:51:36.968Z,24.40
2022-08-19T07:54:05.361Z,24.51
2022-08-19T07:56:34.549Z,24.65
2022-08-19T07:59:02.298Z,24.80
2022-08-19T08:01:30.449Z,24.92
2022-08-19T08:04:17.356Z,25.07
2022-08-19T08:07:03.427Z,25.21
2022-08-19T08:09:34.799Z,25.31
2022-08-19T08:12:30.839Z,25.33
2022-08-19T08:14:59.405Z,25.38
2022-08-19T08:17:48.521Z,25.55
2022-08-19T08:20:17.096Z,25.64
2022-08-19T08:23:03.644Z,25.77
2022-08-19T08:25:32.521Z,25.83
2022-08-19T08:28:04.802Z,26.02
2022-08-19T08:30:33.846Z,26.19
2022-08-19T08:33:02.519Z,26.23
2022-08-19T08:35:30.795Z,26.32
2022-08-19T08:37:58.884Z,26.38
2022-08-19T08:40:31.866Z,26.47
2022-08-19T08:45:46.229Z,26.69
2022-08-19T08:48:27.716Z,26.91
2022-08-19T08:50:58.858Z,27.00
2022-08-19T08:53:31.071Z,27.15
2022-08-19T08:56:03.970Z,27.32
2022-08-19T08:58:44.702Z,27.45
2022-08-19T09:01:14.907Z,27.63
2022-08-19T09:03:46.351Z,27.78
2022-08-19T09:06:19.603Z,27.82
2022-08-19T09:08:58.555Z,27.90
2022-08-19T09:11:44.491Z,27.91
2022-08-19T09:14:47.215Z,28.06
2022-08-19T09:17:11.855Z,28.17
2022-08-19T09:19:54.099Z,28.28
2022-08-19T09:22:25.949Z,28.45
2022-08-19T09:24:56.378Z,28.52
2022-08-19T09:27:42.423Z,28.56
2022-08-19T09:30:16.067Z,28.63
2022-08-19T09:32:46.251Z,28.82
2022-08-19T09:35:15.472Z,28.90
2022-08-19T09:37:52.286Z,28.96
2022-08-19T09:40:26.621Z,28.96
2022-08-19T09:42:54.464Z,29.07
2022-08-19T09:45:23.859Z,29.23
2022-08-19T09:47:55.601Z,29.28
2022-08-19T09:50:25.084Z,29.41
2022-08-19T09:52:56.988Z,29.53
2022-08-19T09:55:31.466Z,29.58
2022-08-19T09:58:02.333Z,29.51
2022-08-19T10:00:31.850Z,29.42
2022-08-19T10:03:01.237Z,29.47
2022-08-19T10:05:48.591Z,29.50
2022-08-19T10:08:17.520Z,29.64
2022-08-19T10:10:46.289Z,29.59
2022-08-19T10:13:15.968Z,29.57
2022-08-19T10:15:47.179Z,29.64
2022-08-19T10:18:19.279Z,29.84
2022-08-19T10:20:51.826Z,29.82
2022-08-19T10:23:21.923Z,29.81
2022-08-19T10:25:49.908Z,29.88
2022-08-19T10:28:19.387Z,30.01
2022-08-19T10:30:48.553Z,29.91
2022-08-19T10:33:39.205Z,29.90
2022-08-19T10:36:08.737Z,29.91
2022-08-19T10:38:37.145Z,29.92
2022-08-19T10:41:17.297Z,30.03
2022-08-19T10:43:46.101Z,30.30
2022-08-19T10:46:16.766Z,30.43
2022-08-19T10:48:46.482Z,30.56
2022-08-19T10:51:32.402Z,30.62
2022-08-19T10:54:01.117Z,30.76
2022-08-19T10:56:46.539Z,30.71
2022-08-19T10:59:15.359Z,30.83
2022-08-19T11:01:44.739Z,30.90
2022-08-19T11:04:19.071Z,31.11
2022-08-19T11:06:48.375Z,31.22
2022-08-19T11:09:17.992Z,31.33
2022-08-19T11:11:46.457Z,31.40
2022-08-19T11:14:16.687Z,31.58
2022-08-19T11:16:45.374Z,31.63
2022-08-19T11:19:15.260Z,31.75
2022-08-19T11:21:45.893Z,31.62
2022-08-19T11:24:21.203Z,31.48
2022-08-19T11:26:50.224Z,31.50
2022-08-19T11:29:20.808Z,31.59
2022-08-19T11:31:50.971Z,31.69
2022-08-19T11:34:22.012Z,31.76
2022-08-19T11:36:51.049Z,31.76
2022-08-19T11:39:21.027Z,31.68
2022-08-19T11:41:49.413Z,31.84
2022-08-19T11:44:18.162Z,31.99
2022-08-19T11:46:47.874Z,32.07
2022-08-19T11:49:16.992Z,32.17
2022-08-19T11:51:46.149Z,32.24
2022-08-19T11:54:15.598Z,32.11
2022-08-19T11:59:27.736Z,32.25
2022-08-19T12:01:56.985Z,32.25
2022-08-19T12:04:25.221Z,32.30
2022-08-19T12:06:54.014Z,32.44
2022-08-19T12:09:23.134Z,32.56
2022-08-19T12:11:51.863Z,32.71
2022-08-19T12:14:19.812Z,32.73
2022-08-19T12:16:52.213Z,32.62
2022-08-19T12:19:22.331Z,32.66
2022-08-19T12:21:51.486Z,32.41
2022-08-19T12:24:23.999Z,32.46
2022-08-19T12:26:53.200Z,32.35
2022-08-19T12:29:24.046Z,32.37
2022-08-19T12:31:53.898Z,32.49
2022-08-19T12:34:22.057Z,32.60
2022-08-19T12:36:50.582Z,32.75
2022-08-19T12:39:18.930Z,32.69
2022-08-19T12:41:54.781Z,32.63
2022-08-19T12:44:29.375Z,32.58
2022-08-19T12:47:01.472Z,32.74
2022-08-19T12:49:52.269Z,32.71
2022-08-19T12:52:23.144Z,32.85
2022-08-19T12:54:54.415Z,33.00
2022-08-19T12:57:23.789Z,32.90
2022-08-19T13:00:00.743Z,32.86
2022-08-19T13:02:30.000Z,32.85
2022-08-19T13:04:58.678Z,32.78
2022-08-19T13:07:26.617Z,32.55
2022-08-19T13:09:54.946Z,32.35
2022-08-19T13:12:25.334Z,32.20
2022-08-19T13:14:53.339Z,32.01
2022-08-19T13:17:21.453Z,31.90
2022-08-19T13:19:51.724Z,31.97
2022-08-19T13:22:19.737Z,32.13
2022-08-19T13:24:47.704Z,32.28
2022-08-19T13:27:15.726Z,32.46
2022-08-19T13:30:02.314Z,32.61
2022-08-19T13:32:48.961Z,32.72
2022-08-19T13:35:19.319Z,32.79
2022-08-19T13:37:47.243Z,32.76
2022-08-19T13:40:19.385Z,32.46
2022-08-19T13:42:49.153Z,32.37
2022-08-19T13:45:18.988Z,32.30
2022-08-19T13:47:48.515Z,32.17
2022-08-19T13:50:20.563Z,31.95
2022-08-19T13:52:49.626Z,31.68
2022-08-19T13:55:24.841Z,31.53
2022-08-19T13:57:54.002Z,31.45
2022-08-19T14:00:22.953Z,31.34
2022-08-19T14:02:53.535Z,31.23
2022-08-19T14:05:23.385Z,31.08
2022-08-19T14:07:51.426Z,30.98
2022-08-19T14:10:19.899Z,30.91
2022-08-19T14:12:48.463Z,30.78
2022-08-19T14:15:17.173Z,30.70
2022-08-19T14:17:49.664Z,30.71
2022-08-19T14:20:18.670Z,30.87
2022-08-19T14:22:49.933Z,30.94
2022-08-19T14:25:20.931Z,30.93
2022-08-19T14:27:49.871Z,30.88
2022-08-19T14:30:20.362Z,30.81
2022-08-19T14:32:48.287Z,30.65
2022-08-19T14:35:17.592Z,30.54
2022-08-19T14:37:47.592Z,30.59
2022-08-19T14:40:18.849Z,30.71
2022-08-19T14:42:46.737Z,30.78
2022-08-19T14:45:14.719Z,30.92
2022-08-19T14:47:42.542Z,31.14
2022-08-19T14:50:17.785Z,31.29
2022-08-19T14:52:48.828Z,31.32
2022-08-19T14:55:18.467Z,31.40
2022-08-19T14:57:47.406Z,31.45
2022-08-19T15:00:16.818Z,31.58
2022-08-19T15:02:45.263Z,31.68
2022-08-19T15:05:13.202Z,31.72
2022-08-19T15:07:41.861Z,31.75
2022-08-19T15:10:13.584Z,31.62
2022-08-19T15:12:43.253Z,31.57
2022-08-19T15:15:14.506Z,31.48
2022-08-19T15:17:43.757Z,31.36
2022-08-19T15:20:15.267Z,31.31
2022-08-19T15:22:43.349Z,31.21
2022-08-19T15:25:16.410Z,31.08
2022-08-19T15:27:44.428Z,30.93
2022-08-19T15:30:13.970Z,30.86
2022-08-19T15:32:44.269Z,30.80
2022-08-19T15:35:15.610Z,30.73
2022-08-19T15:37:43.828Z,30.69
2022-08-19T15:40:14.082Z,30.60
2022-08-19T15:42:43.571Z,30.49
2022-08-19T15:45:13.500Z,30.44
2022-08-19T15:47:41.879Z,30.39
2022-08-19T15:50:11.474Z,30.34
2022-08-19T15:52:49.491Z,30.30
2022-08-19T15:55:32.181Z,30.26
2022-08-19T15:58:24.135Z,30.16
2022-08-19T16:01:13.717Z,30.12
2022-08-19T16:04:00.158Z,30.07
2022-08-19T16:06:28.152Z,29.99
2022-08-19T16:08:57.511Z,29.96
2022-08-19T16:11:30.546Z,29.93
2022-08-19T16:13:59.780Z,29.89
2022-08-19T16:16:33.803Z,29.87
2022-08-19T16:19:05.077Z,29.85
2022-08-19T16:21:34.694Z,29.82
2022-08-19T16:24:06.692Z,29.77
2022-08-19T16:26:36.432Z,29.74
2022-08-19T16:29:08.993Z,29.72
2022-08-19T16:31:41.389Z,29.67
2022-08-19T16:34:09.396Z,29.65
2022-08-19T16:36:42.129Z,29.63
2022-08-19T16:39:11.222Z,29.62
2022-08-19T16:41:41.243Z,29.57
2022-08-19T16:44:11.448Z,29.53
2022-08-19T16:46:41.665Z,29.50
2022-08-19T16:49:11.579Z,29.43
2022-08-19T16:51:40.098Z,29.35
2022-08-19T16:54:08.367Z,29.33
2022-08-19T16:56:36.755Z,29.26
2022-08-19T16:59:06.610Z,29.23
2022-08-19T17:01:34.583Z,29.18
2022-08-19T17:04:02.437Z,29.12
2022-08-19T17:06:32.129Z,29.08
2022-08-19T17:09:01.932Z,29.06
2022-08-19T17:11:31.558Z,29.02
2022-08-19T17:13:59.574Z,28.97
2022-08-19T17:16:32.024Z,28.94
2022-08-19T17:19:01.740Z,28.92
2022-08-19T17:21:33.146Z,28.89
2022-08-19T17:24:02.266Z,28.87
2022-08-19T17:26:31.262Z,28.82
2022-08-19T17:29:00.365Z,28.78
2022-08-19T17:31:32.009Z,28.74
2022-08-19T17:34:00.764Z,28.74
2022-08-19T17:36:31.540Z,28.68
2022-08-19T17:39:01.703Z,28.64
2022-08-19T17:41:32.257Z,28.61
2022-08-19T17:44:00.093Z,28.58
2022-08-19T17:49:10.941Z,28.51
2022-08-19T17:51:42.412Z,28.51
2022-08-19T17:54:12.192Z,28.50
2022-08-19T17:56:40.457Z,28.45
2022-08-19T17:59:13.929Z,28.43
2022-08-19T18:01:52.117Z,28.38
2022-08-19T18:04:24.937Z,28.36
2022-08-19T18:06:55.050Z,28.34
2022-08-19T18:09:30.043Z,28.30
2022-08-19T18:12:11.712Z,28.25
2022-08-19T18:14:40.501Z,28.21
2022-08-19T18:17:10.740Z,28.17
2022-08-19T18:19:43.739Z,28.14
2022-08-19T18:24:38.983Z,28.04
2022-08-19T18:27:07.222Z,27.97
2022-08-19T18:29:36.957Z,27.89
2022-08-19T18:32:05.613Z,27.84
2022-08-19T18:34:33.646Z,27.76
2022-08-19T18:39:45.484Z,27.63
2022-08-19T18:42:32.776Z,27.56
2022-08-19T18:45:17.953Z,27.51
2022-08-19T18:48:03.244Z,27.44
2022-08-19T18:50:31.154Z,27.35
2022-08-19T18:52:59.566Z,27.28
2022-08-19T18:55:29.389Z,27.22
2022-08-19T18:57:57.426Z,27.14
2022-08-19T19:00:25.309Z,27.03
2022-08-19T19:05:20.340Z,26.87
2022-08-19T19:07:48.722Z,26.79
2022-08-19T19:10:16.514Z,26.72
2022-08-19T19:12:45.795Z,26.63
2022-08-19T19:15:14.157Z,26.58
2022-08-19T19:20:25.257Z,26.39
2022-08-19T19:23:04.829Z,26.30
2022-08-19T19:25:49.593Z,26.19
2022-08-19T19:28:27.752Z,26.09
2022-08-19T19:30:58.484Z,26.01
2022-08-19T19:33:26.847Z,25.94
2022-08-19T19:35:54.806Z,25.86
2022-08-19T19:40:47.896Z,25.74
2022-08-19T19:43:18.177Z,25.68
2022-08-19T19:45:48.306Z,25.63
2022-08-19T19:50:41.445Z,25.53
2022-08-19T19:53:09.272Z,25.49
2022-08-19T19:55:37.149Z,25.44
2022-08-19T19:58:06.973Z,25.33
2022-08-19T20:00:35.214Z,25.29
2022-08-19T20:03:04.685Z,25.21
2022-08-19T20:05:32.643Z,25.16
2022-08-19T20:08:18.523Z,25.11
2022-08-19T20:10:47.333Z,25.03
2022-08-19T20:15:52.121Z,24.90
2022-08-19T20:18:21.503Z,24.84
2022-08-19T20:23:14.955Z,24.70
2022-08-19T20:25:43.512Z,24.62
2022-08-19T20:28:12.446Z,24.55
2022-08-19T20:30:47.973Z,24.43
2022-08-19T20:33:16.051Z,24.31
2022-08-19T20:35:46.228Z,24.24
2022-08-19T20:38:14.158Z,24.18
2022-08-19T20:40:42.195Z,24.17
2022-08-19T20:43:11.898Z,24.12
2022-08-19T20:45:40.303Z,24.08
2022-08-19T20:50:35.302Z,24.00
2022-08-19T20:55:35.331Z,23.90
2022-08-19T20:58:03.880Z,23.88
2022-08-19T21:00:31.950Z,23.85
2022-08-19T21:02:59.748Z,23.83
2022-08-19T21:05:30.604Z,23.80
2022-08-19T21:07:59.106Z,23.77
2022-08-19T21:10:28.326Z,23.72
2022-08-19T21:12:56.486Z,23.67
2022-08-19T21:15:25.011Z,23.64
2022-08-19T21:17:52.894Z,23.61
2022-08-19T21:20:20.865Z,23.57
2022-08-19T21:22:48.729Z,23.56
2022-08-19T21:25:17.936Z,23.50
2022-08-19T21:27:47.050Z,23.44
2022-08-19T21:30:15.221Z,23.39
2022-08-19T21:32:43.062Z,23.35
2022-08-19T21:35:11.156Z,23.30
2022-08-19T21:37:38.948Z,23.25
2022-08-19T21:40:08.329Z,23.21
2022-08-19T21:42:36.230Z,23.17
2022-08-19T21:45:06.294Z,23.13
2022-08-19T21:47:34.226Z,23.11
2022-08-19T21:50:02.066Z,23.09
2022-08-19T21:52:29.880Z,23.06
2022-08-19T21:54:58.069Z,23.01
2022-08-19T21:57:26.493Z,23.00
2022-08-19T21:59:54.437Z,22.97
2022-08-19T22:02:23.819Z,22.95
2022-08-19T22:04:52.792Z,22.94
2022-08-19T22:07:22.036Z,22.90
2022-08-19T22:09:51.653Z,22.87
2022-08-19T22:12:24.418Z,22.85
2022-08-19T22:14:53.390Z,22.84
2022-08-19T22:17:23.785Z,22.81
2022-08-19T22:19:52.638Z,22.77
2022-08-19T22:24:45.763Z,22.71
2022-08-19T22:27:13.555Z,22.68
2022-08-19T22:29:41.448Z,22.67
2022-08-19T22:32:26.292Z,22.66
2022-08-19T22:34:59.127Z,22.68
2022-08-19T22:37:28.871Z,22.69
2022-08-19T22:39:57.000Z,22.68
2022-08-19T22:42:31.839Z,22.68
2022-08-19T22:45:01.048Z,22.68
2022-08-19T22:47:32.035Z,22.68
2022-08-19T22:50:04.440Z,22.67
2022-08-19T22:52:31.720Z,22.68
2022-08-19T22:55:02.711Z,22.65
2022-08-19T23:00:14.767Z,22.61
2022-08-19T23:02:52.130Z,22.60
2022-08-19T23:07:53.577Z,22.57
2022-08-19T23:10:27.532Z,22.54
2022-08-19T23:15:25.801Z,22.50
2022-08-19T23:17:55.373Z,22.47
2022-08-19T23:20:27.078Z,22.46
2022-08-19T23:22:57.455Z,22.39
2022-08-19T23:25:28.010Z,22.37
2022-08-19T23:28:13.825Z,22.33
2022-08-19T23:30:44.817Z,22.28
2022-08-19T23:33:24.239Z,22.24
2022-08-19T23:35:53.890Z,22.18
2022-08-19T23:38:39.194Z,22.18
2022-08-19T23:41:09.120Z,22.14
2022-08-19T23:43:39.522Z,22.13
2022-08-19T23:46:10.719Z,22.11
2022-08-19T23:48:39.838Z,22.08
2022-08-19T23:51:10.920Z,22.04
2022-08-19T23:53:42.307Z,21.99
2022-08-19T23:56:12.485Z,21.95
2022-08-19T23:58:40.720Z,21.88
